KPNC/PNC METAR and TAF weather

Enter ICAO airport designator
Station Type Date Time Source
KPNC METAR 2021/05/13 17:53 UTC NOAA

KPNC 131753Z AUTO VRB03KT 10SM CLR 21/05 A3033 RMK AO2 SLP266 T02110050 10211 20056 58015


Station Type Date Time Source
KPNC Decoded METAR 2021/05/13 17:53 UTC NOAA

PONCA CITY MUNICIPAL AIRPORT, OK, United States (KPNC) 36-44N 97-06W 308M
May 13, 2021 - 01:53 PM EDT / 2021.05.13 1753 UTC
Wind: Variable at 3 MPH (3 KT):0
Visibility: 10 mile(s):0
Sky conditions: clear
Temperature: 70.0 F (21.1 C)
Dew Point: 41.0 F (5.0 C)
Relative Humidity: 34%
Pressure (altimeter): 30.33 in. Hg (1027 hPa)
Pressure tendency: 0.04 inches (1.5 hPa) lower than three hours ago
ob: KPNC 131753Z AUTO VRB03KT 10SM CLR 21/05 A3033 RMK AO2 SLP266 T02110050 10211 20056 58015
cycle: 18

Station Type Date Time Source
KPNC TAF 2021/05/13 18:46 UTC NOAA

TAF KPNC 131744Z 1318/1418 15007KT P6SM SCT050 SCT250
FM140500 15008KT P6SM SCT200
FM141500 18016G22KT P6SM SCT040

Example: see airport list